Time;durP1;ratioP1;P1;durP2;ratioP2;P2;SDS_P1;SDS_P2;PMS_P1;PMS_P2;Temp;Humidity;BMP_temperature;BMP_pressure;BME280_temperature;BME280_humidity;BME280_pressure;Samples;Min_cycle;Max_cycle;Signal;HPM_P1;HPM_P2
2022/06/24 00:02:03;;;;;;;5.25;2.30;;;;;;;17.41;69.89;96208.25;10411421;28;20188;-50
2022/06/24 00:07:14;;;;;;;5.00;2.30;;;;;;;17.59;69.70;96194.31;10411249;28;20270;-50
2022/06/24 00:12:19;;;;;;;6.50;2.15;;;;;;;17.39;70.88;96205.81;10411103;28;20224;-50
2022/06/24 00:17:20;;;;;;;5.78;2.70;;;;;;;17.55;70.62;96198.41;10410549;28;20223;-50
2022/06/24 00:22:22;;;;;;;5.00;2.30;;;;;;;17.52;70.41;96196.19;10410669;28;20263;-50
2022/06/24 00:27:24;;;;;;;6.55;2.20;;;;;;;17.49;70.60;96197.44;10411075;28;20232;-52
2022/06/24 00:32:32;;;;;;;3.25;2.28;;;;;;;17.63;69.93;96176.97;10410522;28;20639;-52
2022/06/24 00:37:33;;;;;;;3.45;2.60;;;;;;;17.26;71.25;96195.31;10410428;28;20291;-50
2022/06/24 00:42:36;;;;;;;6.10;2.50;;;;;;;17.14;72.79;96213.69;10410739;28;20176;-53
2022/06/24 00:47:37;;;;;;;4.68;2.60;;;;;;;16.66;74.68;96211.38;10392331;28;20631;-50
2022/06/24 00:52:38;;;;;;;6.18;2.58;;;;;;;16.56;75.96;96217.91;10410336;28;20216;-51
2022/06/24 00:57:39;;;;;;;2.67;2.22;;;;;;;16.54;75.58;96198.78;10412081;28;20259;-54
2022/06/24 01:02:41;;;;;;;4.82;2.60;;;;;;;16.52;75.16;96197.38;10417553;28;20189;-49
2022/06/24 01:07:41;;;;;;;5.32;2.75;;;;;;;16.52;74.89;96187.63;10418277;28;20220;-50
2022/06/24 01:12:41;;;;;;;5.45;2.40;;;;;;;16.36;75.40;96190.69;10417946;28;20228;-51
2022/06/24 01:17:42;;;;;;;3.17;2.58;;;;;;;16.77;73.44;96168.41;10417565;28;20712;-50
2022/06/24 01:22:43;;;;;;;3.78;2.38;;;;;;;16.73;73.96;96172.50;10417461;28;20659;-52
2022/06/24 01:27:44;;;;;;;3.67;2.53;;;;;;;17.00;72.47;96157.38;10416791;28;20707;-49
2022/06/24 01:32:44;;;;;;;3.03;2.28;;;;;;;17.47;70.04;96122.66;10416968;28;20224;-49
2022/06/24 01:37:44;;;;;;;7.22;2.47;;;;;;;17.93;68.22;96120.72;10416281;28;20227;-49
2022/06/24 01:42:45;;;;;;;2.50;2.10;;;;;;;18.07;67.02;96103.66;10416739;28;20192;-49
2022/06/24 01:47:45;;;;;;;5.38;2.67;;;;;;;18.15;66.54;96106.03;10416047;28;20763;-49
2022/06/24 01:52:45;;;;;;;8.40;2.55;;;;;;;18.17;66.19;96095.19;10416255;28;20703;-50
2022/06/24 01:57:46;;;;;;;6.45;2.30;;;;;;;18.04;66.54;96101.47;10415886;28;20977;-55
2022/06/24 02:02:46;;;;;;;3.10;2.17;;;;;;;17.74;68.00;96112.69;10416195;28;20764;-55
2022/06/24 02:07:47;;;;;;;3.15;2.30;;;;;;;17.63;68.83;96129.28;10414821;28;20774;-52
2022/06/24 02:18:06;;;;;;;3.67;2.22;;;;;;;17.73;68.94;96134.91;10414566;28;20221;-51
2022/06/24 02:23:07;;;;;;;3.05;2.20;;;;;;;17.75;69.08;96138.16;10397278;28;20196;-52
2022/06/24 02:28:07;;;;;;;3.13;2.30;;;;;;;17.71;69.62;96144.91;10416046;23;20323;-54
2022/06/24 02:33:08;;;;;;;4.53;2.30;;;;;;;17.80;69.60;96138.31;10374133;28;20221;-52
2022/06/24 02:38:09;;;;;;;5.47;2.38;;;;;;;17.94;69.22;96147.00;10385863;28;20273;-51
2022/06/24 02:43:20;;;;;;;4.13;2.47;;;;;;;18.00;69.13;96147.97;10414651;28;20242;-53
2022/06/24 02:48:21;;;;;;;3.55;2.30;;;;;;;18.09;68.95;96149.31;10414411;28;20820;-53
2022/06/24 02:53:22;;;;;;;3.30;2.28;;;;;;;18.07;69.21;96159.34;10414188;28;20302;-53
2022/06/24 02:58:23;;;;;;;4.05;1.98;;;;;;;18.05;69.15;96166.69;10413844;28;20220;-51
2022/06/24 03:03:23;;;;;;;5.22;2.10;;;;;;;18.07;69.29;96150.56;10413720;28;20203;-54
2022/06/24 03:08:26;;;;;;;4.40;2.20;;;;;;;18.03;69.51;96155.50;10413318;28;20262;-56
2022/06/24 03:13:26;;;;;;;7.65;2.88;;;;;;;17.76;70.54;96160.97;10413376;28;20228;-55
2022/06/24 03:18:26;;;;;;;3.65;2.88;;;;;;;17.68;70.87;96155.94;10412229;28;20209;-53
2022/06/24 03:23:27;;;;;;;9.15;2.60;;;;;;;17.56;71.14;96153.16;10411718;28;20266;-52
2022/06/24 03:28:27;;;;;;;4.85;2.30;;;;;;;17.29;72.76;96168.44;10412002;28;20233;-55
2022/06/24 03:33:27;;;;;;;4.60;2.58;;;;;;;17.09;73.97;96171.97;10412139;28;20220;-52
2022/06/24 03:38:28;;;;;;;4.95;2.65;;;;;;;17.17;73.12;96164.81;10412094;28;20246;-55
2022/06/24 03:43:28;;;;;;;3.22;2.20;;;;;;;16.97;74.48;96164.91;10412211;28;20184;-52
2022/06/24 03:48:29;;;;;;;5.05;2.70;;;;;;;17.01;74.11;96161.63;10412375;28;20210;-52
2022/06/24 03:53:31;;;;;;;4.28;2.60;;;;;;;17.00;75.39;96178.53;10411912;28;20244;-54
2022/06/24 03:58:31;;;;;;;4.55;2.90;;;;;;;16.49;78.74;96190.69;10411476;28;20220;-55
2022/06/24 04:03:31;;;;;;;3.40;2.38;;;;;;;16.92;74.46;96162.88;10411453;28;20193;-54
2022/06/24 04:08:32;;;;;;;8.48;2.65;;;;;;;17.33;72.00;96131.75;10411085;28;20216;-55
2022/06/24 04:13:32;;;;;;;7.13;2.45;;;;;;;17.56;71.63;96125.88;10411140;28;20255;-52
2022/06/24 04:18:33;;;;;;;4.22;2.22;;;;;;;17.93;69.19;96104.81;10410363;28;20212;-52
2022/06/24 04:23:33;;;;;;;4.45;2.20;;;;;;;18.10;69.17;96099.75;10411158;28;20192;-51
2022/06/24 04:28:34;;;;;;;4.05;2.60;;;;;;;18.25;69.49;96115.31;10410277;28;20305;-54
2022/06/24 04:33:34;;;;;;;5.07;2.60;;;;;;;18.34;67.97;96087.47;10410440;28;20212;-53
2022/06/24 04:38:35;;;;;;;4.45;2.83;;;;;;;18.58;67.53;96087.63;10410414;28;20306;-51
2022/06/24 04:43:35;;;;;;;3.58;2.13;;;;;;;18.73;67.26;96082.75;10410572;28;20302;-52
2022/06/24 04:48:36;;;;;;;5.68;2.50;;;;;;;18.84;66.39;96066.06;10410607;28;20216;-51
2022/06/24 04:53:36;;;;;;;3.80;2.20;;;;;;;19.00;65.95;96066.47;10410047;28;20226;-52
2022/06/24 04:58:37;;;;;;;4.65;2.53;;;;;;;19.18;65.16;96063.78;10410375;28;20291;-51
2022/06/24 05:03:37;;;;;;;4.72;2.55;;;;;;;19.30;64.75;96058.50;10409755;28;20188;-52
2022/06/24 05:08:37;;;;;;;5.38;2.55;;;;;;;19.52;63.17;96045.47;10409998;28;20231;-52
2022/06/24 05:13:38;;;;;;;6.82;2.33;;;;;;;19.72;62.02;96020.41;10409848;28;20327;-52
2022/06/24 05:18:38;;;;;;;4.78;2.45;;;;;;;19.90;60.59;95990.28;10409188;28;20231;-52
2022/06/24 05:23:38;;;;;;;6.95;2.47;;;;;;;20.09;60.71;95993.56;10409805;28;20200;-55
2022/06/24 05:28:39;;;;;;;3.08;2.13;;;;;;;20.36;58.35;95961.94;10409240;28;20268;-53
2022/06/24 05:33:39;;;;;;;5.40;2.38;;;;;;;20.59;59.80;95989.50;10409792;28;20251;-52
2022/06/24 05:38:39;;;;;;;5.35;2.80;;;;;;;20.90;56.94;95932.28;10409335;28;20208;-53
2022/06/24 05:43:40;;;;;;;4.10;2.38;;;;;;;21.19;56.00;95909.06;10411179;28;20203;-54
2022/06/24 05:48:40;;;;;;;5.05;2.22;;;;;;;21.52;55.76;95906.63;10416594;28;20248;-55
2022/06/24 05:59:03;;;;;;;5.07;2.28;;;;;;;22.08;53.85;95869.97;10416392;28;20208;-56
2022/06/24 06:04:03;;;;;;;4.40;2.00;;;;;;;22.53;51.49;95833.34;10416047;28;20251;-58
2022/06/24 06:09:04;;;;;;;2.50;1.90;;;;;;;22.59;49.38;95772.81;10415673;28;20306;-53
2022/06/24 06:14:04;;;;;;;3.40;1.90;;;;;;;22.93;49.54;95807.19;10415808;28;20216;-55
2022/06/24 06:19:04;;;;;;;6.47;2.42;;;;;;;23.07;48.05;95762.94;10414819;28;20211;-56
2022/06/24 06:24:05;;;;;;;5.00;2.17;;;;;;;23.07;46.85;95730.06;10415551;28;20181;-52
2022/06/24 06:29:05;;;;;;;3.65;1.77;;;;;;;23.41;46.05;95719.81;10414598;28;20274;-56
2022/06/24 06:34:06;;;;;;;3.58;1.70;;;;;;;23.60;46.12;95730.00;10415038;28;20212;-55
2022/06/24 06:39:06;;;;;;;7.20;2.03;;;;;;;24.57;44.55;95714.06;10414886;28;20213;-55
2022/06/24 06:44:06;;;;;;;3.50;1.50;;;;;;;24.77;43.34;95679.50;10414407;28;20227;-56
2022/06/24 06:49:07;;;;;;;3.53;1.77;;;;;;;25.65;42.00;95678.00;10414584;28;20208;-58
2022/06/24 06:54:07;;;;;;;3.72;1.90;;;;;;;25.00;43.49;95694.16;10413786;28;20224;-57
2022/06/24 06:59:07;;;;;;;3.80;1.77;;;;;;;25.58;42.27;95686.38;10413952;28;20224;-56
2022/06/24 07:04:08;;;;;;;2.20;1.63;;;;;;;26.00;42.27;95684.25;10413926;28;20197;-54
2022/06/24 07:09:08;;;;;;;2.92;1.83;;;;;;;26.95;40.67;95667.78;10413331;28;20216;-57
2022/06/24 07:14:09;;;;;;;5.75;2.15;;;;;;;26.72;40.70;95651.38;10415607;28;20228;-57
2022/06/24 07:19:09;;;;;;;3.80;1.70;;;;;;;26.12;40.81;95617.56;10412531;28;20718;-57
2022/06/24 07:24:09;;;;;;;5.77;1.60;;;;;;;26.43;39.89;95621.84;10413289;28;20507;-57
2022/06/24 07:29:10;;;;;;;3.87;2.03;;;;;;;26.23;40.81;95644.31;10394658;28;20475;-59
2022/06/24 07:34:10;;;;;;;2.05;1.65;;;;;;;25.93;40.97;95628.19;10412647;28;20479;-57
2022/06/24 07:39:11;;;;;;;5.55;2.00;;;;;;;25.94;41.98;95653.13;10412525;28;20223;-57
2022/06/24 07:44:11;;;;;;;7.57;1.80;;;;;;;26.03;40.97;95626.53;10412052;28;20203;-57
2022/06/24 07:49:11;;;;;;;3.03;1.63;;;;;;;27.30;39.08;95617.31;10412120;28;20494;-58
2022/06/24 07:54:12;;;;;;;2.42;1.73;;;;;;;26.48;40.46;95619.13;10411595;28;20266;-54
2022/06/24 07:59:12;;;;;;;4.18;1.88;;;;;;;26.95;38.52;95585.25;10411712;28;20212;-56
2022/06/24 08:04:14;;;;;;;6.18;1.70;;;;;;;26.13;41.08;95626.44;10411457;28;20214;-58
2022/06/24 08:09:14;;;;;;;4.40;2.00;;;;;;;27.19;39.99;95627.41;10409506;28;20216;-58
2022/06/24 08:14:15;;;;;;;3.15;1.88;;;;;;;26.89;40.90;95658.97;10410964;28;20216;-59
2022/06/24 08:19:15;;;;;;;4.85;1.92;;;;;;;26.89;41.18;95648.22;10410800;28;20212;-58
2022/06/24 08:24:16;;;;;;;4.93;2.47;;;;;;;27.61;41.26;95671.50;10411088;28;20189;-59
2022/06/24 08:29:17;;;;;;;2.20;1.90;;;;;;;27.38;40.54;95633.66;10464473;22;20528;-57
2022/06/24 08:34:18;;;;;;;5.05;2.28;;;;;;;26.98;42.07;95659.94;10493172;28;20543;-55
2022/06/24 08:39:18;;;;;;;7.45;2.55;;;;;;;27.82;39.48;95623.56;10493093;28;20276;-53
2022/06/24 08:44:18;;;;;;;3.80;2.03;;;;;;;28.62;39.54;95639.75;10493279;28;20206;-58
2022/06/24 08:49:19;;;;;;;2.77;2.10;;;;;;;29.08;38.60;95635.31;10475235;28;20243;-53
2022/06/24 08:54:21;;;;;;;4.70;2.60;;;;;;;28.83;39.62;95640.94;10493077;28;20477;-55
2022/06/24 08:59:22;;;;;;;4.20;2.40;;;;;;;27.59;40.76;95641.41;10474739;28;20238;-59
2022/06/24 09:04:23;;;;;;;4.65;2.17;;;;;;;27.07;41.50;95625.16;10492850;28;20183;-55
2022/06/24 09:09:24;;;;;;;3.47;2.10;;;;;;;27.91;41.80;95674.84;10492486;28;20206;-58
2022/06/24 09:14:43;;;;;;;3.22;2.08;;;;;;;28.19;41.01;95667.66;10492226;28;20227;-56
2022/06/24 09:19:44;;;;;;;3.97;2.35;;;;;;;27.92;41.79;95687.22;10495483;28;20211;-56
2022/06/24 09:24:46;;;;;;;5.63;2.63;;;;;;;28.42;40.99;95662.44;10500226;28;20188;-53
2022/06/24 09:29:48;;;;;;;7.65;2.72;;;;;;;27.57;42.72;95670.50;10499709;28;20568;-55
2022/06/24 09:35:05;;;;;;;8.93;2.50;;;;;;;29.29;39.88;95654.63;10499593;28;20215;-55
2022/06/24 09:40:26;;;;;;;4.70;2.33;;;;;;;29.01;40.11;95622.25;10499464;28;20214;-55
2022/06/24 09:45:46;;;;;;;4.93;2.25;;;;;;;29.52;39.15;95615.75;10499833;28;20278;-58
2022/06/24 09:50:47;;;;;;;3.55;2.50;;;;;;;30.16;40.06;95676.94;10499166;28;20214;-56
2022/06/24 09:55:47;;;;;;;4.95;2.30;;;;;;;29.64;39.01;95609.81;10498772;28;20187;-56
2022/06/24 10:00:49;;;;;;;5.07;2.40;;;;;;;29.45;39.05;95598.41;10499077;28;20277;-55
2022/06/24 10:05:50;;;;;;;6.90;2.33;;;;;;;29.91;39.22;95629.75;10498186;28;20441;-52
2022/06/24 10:10:52;;;;;;;13.13;2.45;;;;;;;28.80;40.21;95614.56;10498253;28;20219;-56
2022/06/24 10:15:55;;;;;;;6.13;2.35;;;;;;;26.89;43.89;95656.28;10497871;28;20188;-54
2022/06/24 10:20:58;;;;;;;8.35;2.85;;;;;;;25.94;46.43;95704.94;10497725;28;20253;-57
2022/06/24 10:25:58;;;;;;;6.72;2.83;;;;;;;25.67;47.44;95752.84;10480241;28;20215;-52
2022/06/24 10:30:59;;;;;;;3.63;2.75;;;;;;;25.29;48.98;95772.06;10497306;28;20668;-54
2022/06/24 10:36:04;;;;;;;6.72;2.83;;;;;;;24.96;50.15;95795.69;10497604;28;20608;-51
2022/06/24 10:41:05;;;;;;;7.18;3.25;;;;;;;24.49;51.03;95823.59;10497755;28;20199;-54
2022/06/24 10:46:11;;;;;;;6.85;2.92;;;;;;;24.51;51.56;95840.16;10497143;28;20198;-53
2022/06/24 10:51:22;;;;;;;4.28;2.90;;;;;;;24.82;51.74;95853.59;10496812;28;20214;-52
2022/06/24 10:56:42;;;;;;;8.93;3.28;;;;;;;24.82;50.17;95800.81;10496713;28;20196;-53
2022/06/24 11:01:45;;;;;;;6.55;3.08;;;;;;;24.86;52.23;95843.97;10496535;28;20650;-52
2022/06/24 11:07:10;;;;;;;5.28;3.17;;;;;;;24.74;51.08;95812.06;10496384;28;20200;-53
2022/06/24 11:12:28;;;;;;;5.20;3.10;;;;;;;24.79;51.97;95825.47;10496145;28;20226;-53
2022/06/24 11:17:28;;;;;;;6.35;3.60;;;;;;;24.55;52.87;95843.94;10495590;28;20195;-52
2022/06/24 11:22:29;;;;;;;7.60;3.92;;;;;;;24.60;54.07;95872.63;10495589;28;20195;-53
2022/06/24 11:27:35;;;;;;;8.02;3.10;;;;;;;25.38;51.88;95833.97;10495044;28;20179;-53
2022/06/24 11:32:59;;;;;;;9.30;3.55;;;;;;;25.37;51.34;95808.22;10495290;28;20223;-57
2022/06/24 11:38:04;;;;;;;5.22;2.72;;;;;;;26.48;48.90;95791.00;10494958;28;20217;-56
2022/06/24 11:43:09;;;;;;;9.07;3.58;;;;;;;26.24;49.31;95777.50;10494469;28;20179;-57
2022/06/24 11:48:12;;;;;;;8.10;3.25;;;;;;;27.11;47.93;95762.50;10494445;28;20241;-56
2022/06/24 11:53:13;;;;;;;4.80;3.10;;;;;;;27.01;48.85;95784.91;10476627;28;20223;-54
2022/06/24 11:58:18;;;;;;;5.60;3.03;;;;;;;26.11;50.32;95792.34;10494112;28;20215;-56
2022/06/24 12:03:21;;;;;;;7.07;3.38;;;;;;;25.85;50.64;95805.06;10494113;28;20179;-51
2022/06/24 12:08:23;;;;;;;7.35;3.10;;;;;;;25.52;51.22;95804.69;10494035;28;20203;-57
2022/06/24 12:13:25;;;;;;;6.72;3.05;;;;;;;25.22;52.06;95822.44;10493899;28;20250;-54
2022/06/24 12:18:26;;;;;;;6.28;3.25;;;;;;;24.91;53.30;95847.41;10494345;28;20211;-54
2022/06/24 12:23:31;;;;;;;8.02;3.30;;;;;;;24.68;53.87;95864.03;10493711;28;20726;-56
2022/06/24 12:28:32;;;;;;;5.45;3.65;;;;;;;24.44;55.05;95894.00;10467303;28;20271;-53
2022/06/24 12:33:48;;;;;;;8.15;3.33;;;;;;;24.47;55.93;95912.19;10451816;28;20705;-53
2022/06/24 12:39:04;;;;;;;6.22;3.40;;;;;;;24.47;59.59;95989.84;10451822;28;20702;-55
2022/06/24 12:44:05;;;;;;;5.70;3.75;;;;;;;24.15;59.98;95990.81;10451724;28;20192;-52
2022/06/24 12:54:34;;;;;;;7.15;4.05;;;;;;;22.80;65.40;96051.44;10456461;28;20208;-55
2022/06/24 12:59:35;;;;;;;7.15;4.45;;;;;;;21.48;74.30;96041.38;10459630;28;20208;-52
2022/06/24 13:04:35;;;;;;;11.40;6.25;;;;;;;21.09;86.93;96019.97;10459480;28;20184;-56
2022/06/24 13:09:35;;;;;;;9.65;5.20;;;;;;;20.89;96.52;95999.94;10458043;28;20199;-56
2022/06/24 13:14:36;;;;;;;7.03;5.43;;;;;;;20.75;91.48;96007.41;10458425;28;20246;-52
2022/06/24 13:19:36;;;;;;;10.80;7.32;;;;;;;19.95;100.00;96009.81;10458026;28;20220;-53
2022/06/24 13:24:36;;;;;;;9.82;6.50;;;;;;;19.87;100.00;95996.06;10458484;28;20692;-51
2022/06/24 13:29:37;;;;;;;8.13;7.20;;;;;;;20.02;100.00;95998.22;10470799;28;20718;-56
2022/06/24 13:34:37;;;;;;;10.07;6.50;;;;;;;19.85;100.00;95988.31;10477457;28;20223;-53
2022/06/24 13:39:38;;;;;;;8.85;6.88;;;;;;;19.78;100.00;95971.66;10467051;28;20286;-55
2022/06/24 13:44:38;;;;;;;14.50;7.72;;;;;;;19.60;100.00;95978.72;10474917;28;20188;-55
2022/06/24 13:49:38;;;;;;;11.02;7.38;;;;;;;19.16;100.00;95996.00;10452771;28;20226;-57
2022/06/24 13:54:39;;;;;;;10.43;7.65;;;;;;;18.67;100.00;96004.84;10454892;28;20266;-52
2022/06/24 13:59:39;;;;;;;17.08;9.13;;;;;;;18.02;100.00;96013.38;10456984;28;20313;-54
2022/06/24 14:04:40;;;;;;;14.60;10.30;;;;;;;17.55;100.00;96013.84;10456319;28;20274;-58
2022/06/24 14:09:41;;;;;;;11.77;10.60;;;;;;;17.31;100.00;96006.72;10454666;28;20574;-52
2022/06/24 14:14:41;;;;;;;15.52;11.90;;;;;;;17.10;100.00;96009.50;10456666;28;20311;-51
2022/06/24 14:19:41;;;;;;;15.25;11.75;;;;;;;17.02;100.00;96015.06;10459113;28;20239;-56
2022/06/24 14:24:42;;;;;;;18.90;12.77;;;;;;;17.02;100.00;96017.72;10475095;28;20214;-59
2022/06/24 14:29:42;;;;;;;17.13;14.77;;;;;;;16.92;100.00;96030.59;10464087;28;20322;-56
2022/06/24 14:34:43;;;;;;;21.77;13.15;;;;;;;16.89;100.00;96044.25;10455688;28;20224;-57
2022/06/24 14:45:02;;;;;;;17.73;14.13;;;;;;;16.81;100.00;95995.00;10455832;28;20207;-55
2022/06/24 14:50:04;;;;;;;17.77;14.73;;;;;;;16.93;100.00;95976.66;10455584;28;20306;-51
2022/06/24 14:55:06;;;;;;;20.90;18.00;;;;;;;17.11;100.00;95891.22;10455364;28;20223;-56
2022/06/24 15:00:07;;;;;;;28.05;17.38;;;;;;;16.85;100.00;95924.00;10455334;28;20254;-53
2022/06/24 15:05:10;;;;;;;23.50;18.33;;;;;;;16.92;100.00;95924.75;10455342;28;20566;-51
2022/06/24 15:10:11;;;;;;;20.02;14.52;;;;;;;16.96;100.00;95902.16;10467569;28;20243;-53
2022/06/24 15:15:11;;;;;;;19.73;15.90;;;;;;;17.14;100.00;95895.28;10462165;28;20231;-54
2022/06/24 15:20:13;;;;;;;18.92;16.10;;;;;;;17.09;100.00;95899.38;10469180;28;20212;-52
2022/06/24 15:25:13;;;;;;;19.05;17.05;;;;;;;17.15;100.00;95905.66;10473482;28;20187;-53
2022/06/24 15:30:13;;;;;;;22.10;17.60;;;;;;;17.28;100.00;95918.75;10472149;28;20235;-50
2022/06/24 15:35:14;;;;;;;19.92;16.05;;;;;;;17.41;100.00;95917.81;10479621;28;20368;-53
2022/06/24 15:40:14;;;;;;;21.98;17.17;;;;;;;17.64;100.00;95900.44;10494012;28;20207;-52
2022/06/24 15:45:15;;;;;;;16.25;14.40;;;;;;;18.13;100.00;95893.38;10494230;28;20199;-52
2022/06/24 15:50:15;;;;;;;14.02;12.32;;;;;;;18.35;100.00;95888.38;10494310;28;20240;-50
2022/06/24 15:55:15;;;;;;;17.60;13.75;;;;;;;18.53;100.00;95884.06;10494181;28;20223;-49
2022/06/24 16:00:16;;;;;;;14.15;11.75;;;;;;;18.87;100.00;95871.09;10494109;28;20326;-48
2022/06/24 16:05:16;;;;;;;12.35;9.43;;;;;;;19.21;100.00;95861.50;10493222;28;20183;-49
2022/06/24 16:10:16;;;;;;;9.75;8.75;;;;;;;19.43;100.00;95856.41;10494041;28;20236;-47
2022/06/24 16:15:17;;;;;;;10.20;8.02;;;;;;;19.88;100.00;95864.78;10493423;28;20214;-47
2022/06/24 16:20:17;;;;;;;8.65;5.65;;;;;;;20.18;100.00;95863.72;10493633;28;20214;-48
2022/06/24 16:30:36;;;;;;;5.55;5.00;;;;;;;20.74;100.00;95867.38;10492833;28;20573;-53
2022/06/24 16:35:39;;;;;;;6.35;5.57;;;;;;;21.05;100.00;95886.47;10493477;28;20215;-54
2022/06/24 16:40:39;;;;;;;7.50;5.80;;;;;;;21.16;100.00;95885.59;10490892;28;20214;-56
2022/06/24 16:45:39;;;;;;;5.50;5.00;;;;;;;21.66;100.00;95883.88;10493068;28;20562;-51
2022/06/24 16:50:40;;;;;;;5.35;4.32;;;;;;;21.45;100.00;95868.66;10492888;28;20210;-53
2022/06/24 16:55:40;;;;;;;5.75;5.22;;;;;;;21.50;100.00;95872.22;10492996;28;20241;-54
2022/06/24 17:00:41;;;;;;;5.00;4.55;;;;;;;21.28;100.00;95874.03;10493209;28;20707;-54
2022/06/24 17:05:41;;;;;;;4.43;4.03;;;;;;;21.17;100.00;95873.06;10492999;28;20199;-54
2022/06/24 17:10:41;;;;;;;5.65;4.50;;;;;;;20.99;100.00;95874.94;10492987;28;20759;-53
2022/06/24 17:15:42;;;;;;;6.40;4.50;;;;;;;21.26;100.00;95870.81;10493063;28;20289;-57
2022/06/24 17:20:42;;;;;;;6.97;4.40;;;;;;;21.48;100.00;95860.97;10492522;28;20199;-56
2022/06/24 17:25:43;;;;;;;5.35;4.50;;;;;;;21.17;100.00;95859.75;10492604;28;20187;-56
2022/06/24 17:30:43;;;;;;;7.90;5.20;;;;;;;20.86;100.00;95859.31;10492769;28;20702;-58
2022/06/24 17:35:44;;;;;;;5.50;5.00;;;;;;;20.49;100.00;95867.72;10492308;28;20222;-57
2022/06/24 17:40:44;;;;;;;8.52;6.00;;;;;;;20.48;100.00;95868.78;10495125;28;20207;-55
2022/06/24 17:45:44;;;;;;;6.82;4.93;;;;;;;20.37;100.00;95854.50;10499708;28;20194;-58
2022/06/24 17:50:45;;;;;;;7.82;5.40;;;;;;;19.35;100.00;95862.06;10498996;28;20238;-53
2022/06/24 17:55:45;;;;;;;6.70;5.25;;;;;;;19.34;100.00;95852.50;10489903;28;20227;-56
2022/06/24 18:00:46;;;;;;;5.75;5.07;;;;;;;19.20;100.00;95859.06;10477221;28;20220;-56
2022/06/24 18:05:46;;;;;;;5.88;4.95;;;;;;;19.23;100.00;95859.44;10490418;28;20199;-53
2022/06/24 18:10:47;;;;;;;6.90;4.13;;;;;;;19.50;100.00;95836.88;10498059;28;20272;-57
2022/06/24 18:15:47;;;;;;;9.13;5.50;;;;;;;19.03;100.00;95827.13;10497327;28;20794;-53
2022/06/24 18:20:47;;;;;;;9.40;5.63;;;;;;;19.10;100.00;95841.09;10497773;28;20243;-55
2022/06/24 18:25:48;;;;;;;11.35;6.85;;;;;;;19.03;100.00;95837.72;10497863;28;20199;-56
2022/06/24 18:30:48;;;;;;;7.38;6.20;;;;;;;19.11;100.00;95847.19;10497580;28;20235;-55
2022/06/24 18:35:49;;;;;;;7.60;5.55;;;;;;;18.90;100.00;95854.72;10497465;28;20688;-56
2022/06/24 18:40:49;;;;;;;9.20;6.32;;;;;;;19.04;100.00;95840.16;10497125;28;20751;-57
2022/06/24 18:45:49;;;;;;;13.05;5.93;;;;;;;18.91;100.00;95827.13;10497344;28;20191;-57
2022/06/24 18:50:52;;;;;;;10.32;6.90;;;;;;;18.81;100.00;95832.19;10496854;28;20249;-57
2022/06/24 18:55:53;;;;;;;7.05;6.00;;;;;;;18.82;100.00;95837.25;10496689;28;20215;-56
2022/06/24 19:00:53;;;;;;;9.15;6.10;;;;;;;18.67;100.00;95842.22;10496943;28;20211;-54
2022/06/24 19:05:54;;;;;;;7.80;7.03;;;;;;;18.42;100.00;95850.34;10496250;28;20214;-57
2022/06/24 19:10:54;;;;;;;7.47;6.50;;;;;;;18.38;100.00;95852.66;10496526;28;20297;-54
2022/06/24 19:15:55;;;;;;;8.50;7.00;;;;;;;17.93;100.00;95875.09;10494698;28;20918;-54
2022/06/24 19:20:55;;;;;;;9.15;6.85;;;;;;;17.70;100.00;95888.97;10495340;28;20219;-55
2022/06/24 19:25:55;;;;;;;8.18;6.63;;;;;;;17.70;100.00;95901.41;10495745;28;20203;-52
2022/06/24 19:30:56;;;;;;;9.20;7.30;;;;;;;17.53;100.00;95909.13;10463176;28;20274;-52
2022/06/24 19:35:56;;;;;;;9.57;7.82;;;;;;;17.34;100.00;95922.38;10450652;28;20264;-50
2022/06/24 19:40:57;;;;;;;10.50;9.45;;;;;;;17.23;100.00;95925.75;10449896;28;20215;-50
2022/06/24 19:45:57;;;;;;;9.63;8.65;;;;;;;17.30;100.00;95910.59;10451424;28;20192;-52
2022/06/24 19:50:57;;;;;;;10.45;9.10;;;;;;;17.16;100.00;95914.41;10453279;28;20268;-50
2022/06/24 19:55:58;;;;;;;11.45;10.30;;;;;;;17.12;100.00;95929.91;10453174;28;20251;-50
2022/06/24 20:01:04;;;;;;;19.63;12.65;;;;;;;17.01;100.00;95949.13;10453117;28;20207;-50
2022/06/24 20:06:05;;;;;;;13.80;12.38;;;;;;;16.99;100.00;95969.72;10474945;28;20202;-50
2022/06/24 20:12:00;;;;;;;14.18;12.77;;;;;;;17.01;100.00;95971.09;10494361;28;20713;-50
2022/06/24 20:16:30;;;;;;;15.07;13.45;;;;;;;17.04;100.00;95978.59;10493907;28;20218;-51
2022/06/24 20:21:30;;;;;;;15.23;13.63;;;;;;;17.05;100.00;95966.19;10476188;28;20218;-51
2022/06/24 20:26:31;;;;;;;17.75;14.90;;;;;;;16.93;100.00;95961.59;10493849;28;20229;-50
2022/06/24 20:31:32;;;;;;;19.10;17.25;;;;;;;16.81;100.00;95973.84;10458432;28;20231;-57
2022/06/24 20:36:33;;;;;;;19.10;16.80;;;;;;;16.72;100.00;95967.19;10470971;23;20250;-53
2022/06/24 20:41:34;;;;;;;18.92;16.92;;;;;;;16.70;100.00;95979.84;10451606;28;20184;-52
2022/06/24 20:46:34;;;;;;;19.10;17.27;;;;;;;16.67;100.00;95974.97;10451958;28;20634;-53
2022/06/24 20:51:35;;;;;;;20.75;18.65;;;;;;;16.71;100.00;95961.13;10451885;28;20230;-54
2022/06/24 20:56:37;;;;;;;22.63;20.48;;;;;;;16.64;100.00;95965.63;10451836;28;20282;-52
2022/06/24 21:01:37;;;;;;;22.75;20.40;;;;;;;16.60;100.00;95956.50;10451633;28;20198;-51
2022/06/24 21:06:38;;;;;;;21.95;19.83;;;;;;;16.55;100.00;95965.09;10451653;28;20211;-52
2022/06/24 21:11:38;;;;;;;24.17;20.65;;;;;;;16.44;100.00;95957.81;10451570;28;20270;-51
2022/06/24 21:16:38;;;;;;;25.70;22.08;;;;;;;16.40;100.00;95953.97;10458294;28;20295;-52
2022/06/24 21:21:39;;;;;;;24.98;22.58;;;;;;;16.40;100.00;95954.78;10459561;28;20188;-52
2022/06/24 21:26:39;;;;;;;23.88;21.45;;;;;;;16.31;100.00;95963.16;10459272;28;20223;-52
2022/06/24 21:31:39;;;;;;;23.33;21.05;;;;;;;16.24;100.00;95960.56;10459182;28;20310;-52
2022/06/24 21:36:40;;;;;;;23.50;20.30;;;;;;;16.21;100.00;95972.34;10496697;28;20239;-52
2022/06/24 21:41:40;;;;;;;23.10;19.52;;;;;;;16.30;100.00;95980.06;10499902;28;20288;-52
2022/06/24 21:46:41;;;;;;;20.38;18.27;;;;;;;16.36;100.00;95979.22;10499620;28;20357;-51
2022/06/24 21:51:41;;;;;;;20.33;18.08;;;;;;;16.44;100.00;95980.81;10499821;28;20241;-51
2022/06/24 21:56:42;;;;;;;22.02;19.77;;;;;;;16.18;100.00;95979.91;10499262;28;20306;-54
2022/06/24 22:01:42;;;;;;;19.70;17.83;;;;;;;16.25;100.00;95979.88;10499402;28;20183;-52
2022/06/24 22:06:46;;;;;;;20.02;18.02;;;;;;;16.16;100.00;95982.75;10499051;28;20735;-52
2022/06/24 22:11:47;;;;;;;17.40;15.70;;;;;;;16.21;100.00;95982.94;10498746;28;20701;-52
2022/06/24 22:16:47;;;;;;;18.13;16.17;;;;;;;16.23;100.00;95974.78;10498887;28;20246;-52
2022/06/24 22:21:47;;;;;;;18.15;16.35;;;;;;;16.11;100.00;95981.75;10498330;28;20187;-52
2022/06/24 22:26:48;;;;;;;17.33;15.52;;;;;;;16.04;100.00;95976.50;10497874;28;20215;-53
2022/06/24 22:31:48;;;;;;;17.77;15.80;;;;;;;16.05;100.00;95971.00;10498183;28;20229;-51
2022/06/24 22:36:48;;;;;;;17.77;15.82;;;;;;;16.04;100.00;95972.03;10497632;28;20234;-57
2022/06/24 22:41:49;;;;;;;17.65;14.40;;;;;;;16.05;100.00;95968.38;10497585;28;20277;-55
2022/06/24 22:46:49;;;;;;;15.32;13.80;;;;;;;16.06;100.00;95969.16;10497437;28;20236;-55
2022/06/24 22:51:50;;;;;;;18.77;15.20;;;;;;;15.95;100.00;95968.00;10497807;28;20231;-55
2022/06/24 22:56:50;;;;;;;15.38;13.77;;;;;;;15.89;100.00;95976.75;10504136;28;20246;-53
2022/06/24 23:01:50;;;;;;;15.85;14.25;;;;;;;15.89;100.00;95979.41;10497088;28;20187;-52
2022/06/24 23:06:51;;;;;;;15.13;13.70;;;;;;;15.87;100.00;95982.25;10496800;28;20207;-51
2022/06/24 23:11:52;;;;;;;14.05;12.63;;;;;;;15.81;100.00;95980.44;10496422;28;20234;-53
2022/06/24 23:16:52;;;;;;;14.10;12.63;;;;;;;15.87;100.00;95989.38;10496539;28;20250;-52
2022/06/24 23:21:52;;;;;;;15.60;13.02;;;;;;;15.77;100.00;95989.78;10496080;28;20640;-51
2022/06/24 23:26:53;;;;;;;15.45;13.38;;;;;;;15.76;100.00;95993.44;10495981;28;20215;-52
2022/06/24 23:31:53;;;;;;;16.05;12.48;;;;;;;15.76;100.00;95993.44;10495667;28;20207;-53